createdAt,value
2017-10-20T00:00:38.173Z,0
2017-10-20T00:01:18.791Z,0
2017-10-20T00:01:59.244Z,0
2017-10-20T00:02:39.843Z,0
2017-10-20T00:03:20.358Z,0
2017-10-20T00:04:01.017Z,0
2017-10-20T00:04:41.559Z,0
2017-10-20T00:05:22.087Z,0
2017-10-20T00:06:02.706Z,0
2017-10-20T00:06:43.262Z,0
2017-10-20T00:07:23.794Z,0
2017-10-20T00:08:04.310Z,0
2017-10-20T00:08:44.858Z,0
2017-10-20T00:09:25.517Z,0
2017-10-20T00:10:06.108Z,0
2017-10-20T00:10:46.660Z,0
2017-10-20T00:11:27.220Z,0
2017-10-20T00:12:07.754Z,0
2017-10-20T00:12:48.341Z,0
2017-10-20T00:13:28.865Z,0
2017-10-20T00:14:09.435Z,0
2017-10-20T00:14:49.959Z,0
2017-10-20T00:15:30.488Z,0
2017-10-20T00:16:11.070Z,0
2017-10-20T00:16:51.714Z,0
2017-10-20T00:17:32.273Z,0
2017-10-20T00:18:12.832Z,0
2017-10-20T00:18:53.381Z,0
2017-10-20T00:19:33.852Z,0
2017-10-20T00:20:14.429Z,0
2017-10-20T00:20:54.941Z,0
2017-10-20T00:21:35.468Z,0
2017-10-20T00:22:16.002Z,0
2017-10-20T00:22:56.517Z,0
2017-10-20T00:23:37.105Z,0
2017-10-20T00:24:17.606Z,0
2017-10-20T00:24:58.185Z,0
2017-10-20T00:25:38.702Z,0
2017-10-20T00:26:19.199Z,0
2017-10-20T00:26:59.689Z,0
2017-10-20T00:27:40.307Z,0
2017-10-20T00:28:20.779Z,0
2017-10-20T00:29:01.347Z,0
2017-10-20T00:29:41.924Z,0
2017-10-20T00:30:22.496Z,0
2017-10-20T00:31:03.066Z,0
2017-10-20T00:31:43.587Z,0
2017-10-20T00:32:24.147Z,0
2017-10-20T00:33:04.678Z,0
2017-10-20T00:33:45.220Z,0
2017-10-20T00:34:25.769Z,0
2017-10-20T00:35:07.225Z,0
2017-10-20T00:35:47.738Z,0
2017-10-20T00:36:28.300Z,0
2017-10-20T00:37:08.852Z,0
2017-10-20T00:37:49.409Z,0
2017-10-20T00:38:29.932Z,0
2017-10-20T00:39:10.494Z,0
2017-10-20T00:39:51.038Z,0
2017-10-20T00:40:31.670Z,0
2017-10-20T00:41:12.231Z,0
2017-10-20T00:41:52.799Z,0
2017-10-20T00:42:33.335Z,0
2017-10-20T00:43:13.864Z,0
2017-10-20T00:43:54.424Z,0
2017-10-20T00:44:34.947Z,0
2017-10-20T00:45:15.510Z,0
2017-10-20T00:45:56.040Z,0
2017-10-20T00:46:36.677Z,0
2017-10-20T00:47:17.092Z,0
2017-10-20T00:47:57.676Z,0
2017-10-20T00:48:38.258Z,0
2017-10-20T00:49:18.794Z,0
2017-10-20T00:49:59.284Z,0
2017-10-20T00:50:39.808Z,0
2017-10-20T00:51:20.375Z,0
2017-10-20T00:52:00.901Z,0
2017-10-20T00:52:41.429Z,0
2017-10-20T00:53:21.984Z,0
2017-10-20T00:54:02.527Z,0
2017-10-20T00:54:43.071Z,0
2017-10-20T00:55:23.585Z,0
2017-10-20T00:56:04.131Z,0
2017-10-20T00:56:44.672Z,0
2017-10-20T00:57:25.214Z,0
2017-10-20T00:58:05.767Z,0
2017-10-20T00:58:46.303Z,0
2017-10-20T00:59:26.888Z,0
2017-10-20T01:00:07.396Z,0
2017-10-20T01:00:47.865Z,0
2017-10-20T01:01:28.444Z,0
2017-10-20T01:02:09.055Z,0
2017-10-20T01:02:49.560Z,0
2017-10-20T01:03:30.070Z,0
2017-10-20T01:04:10.622Z,0
2017-10-20T01:04:51.190Z,0
2017-10-20T01:05:31.778Z,0
2017-10-20T01:06:12.379Z,0
2017-10-20T01:06:52.912Z,0
2017-10-20T01:07:33.417Z,0
2017-10-20T01:08:13.911Z,0
2017-10-20T01:08:54.522Z,0
2017-10-20T01:09:35.040Z,0
2017-10-20T01:10:15.618Z,0
2017-10-20T01:10:56.172Z,0
2017-10-20T01:11:36.699Z,0
2017-10-20T01:12:17.220Z,0
2017-10-20T01:12:57.747Z,0
2017-10-20T01:13:38.275Z,0
2017-10-20T01:14:18.844Z,0
2017-10-20T01:14:59.360Z,0
2017-10-20T01:15:39.851Z,0
2017-10-20T01:16:20.399Z,0
2017-10-20T01:17:00.949Z,0
2017-10-20T01:17:41.549Z,0
2017-10-20T01:18:22.036Z,0
2017-10-20T01:19:02.666Z,0
2017-10-20T01:19:43.210Z,0
2017-10-20T01:20:23.772Z,0
2017-10-20T01:21:04.331Z,0
2017-10-20T01:21:44.822Z,0
2017-10-20T01:22:25.412Z,0
2017-10-20T01:23:05.928Z,0
2017-10-20T01:23:46.487Z,0
2017-10-20T01:24:27.158Z,0
2017-10-20T01:25:07.743Z,0
2017-10-20T01:25:48.277Z,0
2017-10-20T01:26:28.915Z,0
2017-10-20T01:27:09.747Z,0
2017-10-20T01:27:50.292Z,0
2017-10-20T01:28:30.815Z,0
2017-10-20T01:29:11.401Z,0
2017-10-20T01:29:51.928Z,0
2017-10-20T01:30:33.195Z,0
2017-10-20T01:31:13.731Z,0
2017-10-20T01:31:54.848Z,0
2017-10-20T01:32:35.378Z,0
2017-10-20T01:33:15.915Z,0
2017-10-20T01:33:57.292Z,0
2017-10-20T01:34:37.809Z,0
2017-10-20T01:35:18.400Z,0
2017-10-20T01:35:58.984Z,0
2017-10-20T01:36:40.554Z,0
2017-10-20T01:53:52.146Z,0
2017-10-20T01:54:40.212Z,0
2017-10-20T01:55:29.541Z,0
2017-10-20T01:56:16.210Z,0
2017-10-20T01:57:00.121Z,0
2017-10-20T01:57:47.029Z,0
2017-10-20T01:58:36.022Z,0
2017-10-20T01:59:24.434Z,0
2017-10-20T02:00:10.854Z,0
2017-10-20T02:00:58.789Z,0
2017-10-20T02:01:44.240Z,0
2017-10-20T02:02:34.692Z,0
2017-10-20T02:03:24.091Z,0
2017-10-20T02:04:09.556Z,0
2017-10-20T02:04:49.164Z,0
2017-10-20T02:05:29.670Z,0
2017-10-20T02:06:10.156Z,0
2017-10-20T02:06:50.774Z,0
2017-10-20T02:07:31.263Z,0
2017-10-20T02:08:11.818Z,0
2017-10-20T02:08:52.344Z,0
2017-10-20T02:09:32.898Z,0
2017-10-20T02:10:13.462Z,0
2017-10-20T02:10:53.978Z,0
2017-10-20T02:11:46.535Z,0
2017-10-20T02:12:34.369Z,0
2017-10-20T02:13:20.145Z,0
2017-10-20T02:14:07.734Z,0
2017-10-20T02:14:56.316Z,0
2017-10-20T02:15:47.271Z,0
2017-10-20T02:16:44.267Z,0
2017-10-20T02:22:10.151Z,0
2017-10-20T02:22:50.325Z,0
2017-10-20T02:23:30.836Z,0
2017-10-20T02:24:11.355Z,0
2017-10-20T02:24:51.909Z,0
2017-10-20T02:25:32.426Z,0
2017-10-20T02:26:12.966Z,0
2017-10-20T02:26:53.504Z,0
2017-10-20T02:27:34.088Z,0
2017-10-20T02:28:14.610Z,0
2017-10-20T02:28:55.170Z,0
2017-10-20T02:29:35.723Z,0
2017-10-20T02:30:16.242Z,0
2017-10-20T02:30:56.793Z,0
2017-10-20T02:31:37.322Z,0
2017-10-20T02:32:17.817Z,0
2017-10-20T02:32:58.461Z,0
2017-10-20T02:33:39.083Z,0
2017-10-20T02:34:19.581Z,0
2017-10-20T02:35:00.142Z,0
2017-10-20T02:35:40.670Z,0
2017-10-20T02:36:21.218Z,0
2017-10-20T02:37:01.770Z,0
2017-10-20T02:37:42.270Z,0
2017-10-20T02:38:22.772Z,0
2017-10-20T02:39:03.380Z,0
2017-10-20T02:39:43.888Z,0
2017-10-20T02:40:24.415Z,0
2017-10-20T02:41:04.952Z,0
2017-10-20T02:41:45.549Z,0
2017-10-20T02:42:26.153Z,0
2017-10-20T02:43:06.709Z,0
2017-10-20T02:43:47.189Z,0
2017-10-20T02:44:27.729Z,0
2017-10-20T02:45:08.285Z,0
2017-10-20T02:45:48.829Z,0
2017-10-20T02:46:29.384Z,0
2017-10-20T02:47:09.916Z,0
2017-10-20T02:47:50.467Z,0
2017-10-20T02:48:30.994Z,0
2017-10-20T02:49:11.502Z,0
2017-10-20T02:49:52.088Z,0
2017-10-20T02:50:32.585Z,0
2017-10-20T02:51:13.146Z,0
2017-10-20T02:51:53.677Z,0
2017-10-20T02:52:34.273Z,0
2017-10-20T02:53:14.804Z,0
2017-10-20T02:53:55.343Z,0
2017-10-20T02:54:35.890Z,0
2017-10-20T02:55:16.441Z,0
2017-10-20T02:55:56.989Z,0
2017-10-20T02:56:37.533Z,0
2017-10-20T02:57:18.059Z,0
2017-10-20T02:57:58.583Z,0
2017-10-20T02:58:43.037Z,0
2017-10-20T03:45:20.134Z,0
2017-10-20T03:46:01.495Z,0
2017-10-20T03:46:44.654Z,0
2017-10-20T03:47:25.530Z,0
2017-10-20T03:48:05.947Z,0
2017-10-20T03:48:49.291Z,0
2017-10-20T03:49:31.600Z,0
2017-10-20T03:50:12.959Z,0
2017-10-20T03:50:54.823Z,0
2017-10-20T03:51:36.955Z,0
2017-10-20T03:52:18.459Z,0
2017-10-20T03:53:00.710Z,0
2017-10-20T03:53:41.764Z,0
2017-10-20T03:54:34.867Z,0
2017-10-20T03:55:27.877Z,0
2017-10-20T05:06:43.215Z,0
2017-10-20T05:07:23.962Z,0
2017-10-20T05:08:04.542Z,0
2017-10-20T05:08:45.101Z,0
2017-10-20T05:09:25.622Z,0
2017-10-20T05:10:06.204Z,0
2017-10-20T05:10:46.715Z,0
2017-10-20T05:11:27.252Z,0
2017-10-20T05:12:07.793Z,0
2017-10-20T05:12:48.313Z,0
2017-10-20T05:13:28.842Z,0
2017-10-20T05:14:09.390Z,0
2017-10-20T05:14:49.968Z,0
2017-10-20T05:15:30.517Z,0
2017-10-20T05:16:11.062Z,0
2017-10-20T05:16:51.568Z,0
2017-10-20T05:17:32.140Z,0
2017-10-20T05:18:12.674Z,0
2017-10-20T05:18:53.169Z,0
2017-10-20T05:19:33.748Z,0
2017-10-20T05:20:14.277Z,0
2017-10-20T05:20:54.869Z,0
2017-10-20T05:21:35.653Z,0
2017-10-20T05:22:16.461Z,0
2017-10-20T05:22:57.020Z,0
2017-10-20T05:23:37.971Z,0
2017-10-20T05:24:18.499Z,0
2017-10-20T05:24:59.233Z,0
2017-10-20T05:25:39.611Z,0
2017-10-20T05:26:20.186Z,0
2017-10-20T05:27:00.739Z,0
2017-10-20T05:27:41.425Z,0
2017-10-20T05:28:22.032Z,0
2017-10-20T05:29:02.573Z,0
2017-10-20T05:29:43.107Z,0
2017-10-20T05:30:23.647Z,0
2017-10-20T05:31:04.154Z,0
2017-10-20T05:31:44.857Z,0
2017-10-20T05:32:25.491Z,0
2017-10-20T05:33:06.092Z,0
2017-10-20T05:33:46.626Z,0
2017-10-20T05:34:27.655Z,0
2017-10-20T05:35:08.433Z,4
2017-10-20T05:35:49.282Z,4
2017-10-20T05:36:30.181Z,0
2017-10-20T05:37:10.838Z,0
2017-10-20T05:37:51.385Z,0
2017-10-20T05:38:31.955Z,4
2017-10-20T05:39:12.515Z,4
2017-10-20T05:39:53.073Z,4
2017-10-20T05:40:33.658Z,4
2017-10-20T05:41:14.212Z,4
2017-10-20T05:41:54.812Z,0
2017-10-20T05:42:35.344Z,0
2017-10-20T05:43:15.927Z,4
2017-10-20T05:43:56.501Z,4
2017-10-20T05:44:37.045Z,4
2017-10-20T05:45:17.564Z,4
2017-10-20T05:45:58.044Z,4
2017-10-20T05:46:38.670Z,4
2017-10-20T05:47:19.221Z,4
2017-10-20T05:48:00.629Z,8
2017-10-20T05:48:42.345Z,8
2017-10-20T05:49:26.713Z,8
2017-10-20T05:50:07.131Z,8
2017-10-20T05:50:47.689Z,8
2017-10-20T05:51:28.307Z,8
2017-10-20T05:52:08.932Z,8
2017-10-20T05:52:49.417Z,8
2017-10-20T05:53:30.056Z,8
2017-10-20T05:54:11.667Z,8
2017-10-20T05:54:52.167Z,12
2017-10-20T05:55:32.681Z,8
2017-10-20T05:56:13.242Z,8
2017-10-20T05:56:53.807Z,8
2017-10-20T05:57:34.367Z,12
2017-10-20T05:58:14.933Z,8
2017-10-20T05:58:56.063Z,12
2017-10-20T05:59:37.191Z,12
2017-10-20T06:00:17.918Z,12
2017-10-20T06:00:58.810Z,16
2017-10-20T06:01:39.232Z,16
2017-10-20T06:02:19.800Z,16
2017-10-20T06:03:00.318Z,16
2017-10-20T06:03:40.838Z,16
2017-10-20T06:04:21.599Z,16
2017-10-20T06:05:02.155Z,20
2017-10-20T06:05:42.753Z,20
2017-10-20T06:06:23.312Z,20
2017-10-20T06:07:03.821Z,24
2017-10-20T06:07:44.401Z,24
2017-10-20T06:08:24.917Z,24
2017-10-20T06:09:05.947Z,24
2017-10-20T06:09:46.534Z,24
2017-10-20T06:10:27.094Z,24
2017-10-20T06:11:07.642Z,28
2017-10-20T06:11:48.365Z,28
2017-10-20T06:12:29.746Z,28
2017-10-20T06:13:10.384Z,28
2017-10-20T06:13:50.888Z,32
2017-10-20T06:14:31.487Z,32
2017-10-20T06:15:12.127Z,36
2017-10-20T06:15:52.663Z,32
2017-10-20T06:16:33.183Z,36
2017-10-20T06:17:13.759Z,32
2017-10-20T06:17:54.260Z,36
2017-10-20T06:18:34.875Z,36
2017-10-20T06:19:15.458Z,36
2017-10-20T06:19:56.095Z,32
2017-10-20T06:20:37.209Z,32
2017-10-20T06:21:19.300Z,36
2017-10-20T06:22:00.090Z,36
2017-10-20T06:22:40.626Z,36
2017-10-20T06:23:21.168Z,40
2017-10-20T06:24:02.204Z,36
2017-10-20T06:24:42.765Z,40
2017-10-20T06:25:23.321Z,36
2017-10-20T06:26:04.069Z,40
2017-10-20T06:26:44.629Z,40
2017-10-20T06:27:25.980Z,40
2017-10-20T06:28:06.511Z,40
2017-10-20T06:28:47.120Z,44
2017-10-20T06:29:27.673Z,44
2017-10-20T06:30:08.140Z,48
2017-10-20T06:30:48.737Z,48
2017-10-20T06:31:29.232Z,52
2017-10-20T06:32:09.808Z,52
2017-10-20T06:32:50.363Z,56
2017-10-20T06:33:30.905Z,60
2017-10-20T06:34:11.594Z,56
2017-10-20T06:34:52.488Z,60
2017-10-20T06:35:33.051Z,64
2017-10-20T06:36:13.600Z,64
2017-10-20T06:36:54.120Z,68
2017-10-20T06:37:34.690Z,68
2017-10-20T06:38:15.487Z,68
2017-10-20T06:38:56.260Z,72
2017-10-20T06:39:36.798Z,72
2017-10-20T06:40:17.351Z,76
2017-10-20T06:40:57.867Z,76
2017-10-20T06:41:38.409Z,76
2017-10-20T06:42:18.960Z,72
2017-10-20T06:42:59.567Z,72
2017-10-20T06:43:40.142Z,76
2017-10-20T06:44:20.620Z,72
2017-10-20T06:45:01.779Z,72
2017-10-20T06:45:43.066Z,72
2017-10-20T06:46:23.930Z,80
2017-10-20T06:47:04.780Z,84
2017-10-20T06:47:45.711Z,88
2017-10-20T06:48:26.329Z,96
2017-10-20T06:49:07.496Z,100
2017-10-20T06:49:48.152Z,104
2017-10-20T06:50:29.067Z,112
2017-10-20T06:51:09.827Z,112
2017-10-20T06:51:50.278Z,120
2017-10-20T06:52:30.927Z,124
2017-10-20T06:53:11.429Z,128
2017-10-20T06:53:51.979Z,132
2017-10-20T06:54:32.535Z,140
2017-10-20T06:55:13.185Z,140
2017-10-20T06:55:53.714Z,148
2017-10-20T06:56:34.261Z,152
2017-10-20T06:57:14.945Z,156
2017-10-20T06:57:55.360Z,156
2017-10-20T06:58:35.903Z,160
2017-10-20T06:59:16.447Z,176
2017-10-20T06:59:56.989Z,172
2017-10-20T07:00:37.600Z,168
2017-10-20T07:01:18.114Z,164
2017-10-20T07:01:58.597Z,164
2017-10-20T07:02:39.232Z,160
2017-10-20T07:03:19.752Z,160
2017-10-20T07:04:00.300Z,164
2017-10-20T07:04:40.834Z,160
2017-10-20T07:05:21.424Z,164
2017-10-20T07:06:01.926Z,160
2017-10-20T07:06:42.552Z,164
2017-10-20T07:07:23.072Z,160
2017-10-20T07:08:03.790Z,164
2017-10-20T07:08:44.280Z,156
2017-10-20T07:09:24.868Z,156
2017-10-20T07:10:05.490Z,148
2017-10-20T07:10:45.974Z,156
2017-10-20T07:11:26.623Z,148
2017-10-20T07:12:07.146Z,152
2017-10-20T07:12:47.878Z,152
2017-10-20T07:13:28.481Z,156
2017-10-20T07:14:08.936Z,152
2017-10-20T07:14:49.556Z,164
2017-10-20T07:15:30.149Z,160
2017-10-20T07:16:10.588Z,168
2017-10-20T07:16:51.311Z,172
2017-10-20T07:17:31.924Z,176
2017-10-20T07:18:12.383Z,188
2017-10-20T07:18:52.983Z,192
2017-10-20T07:19:33.911Z,204
2017-10-20T07:20:15.587Z,212
2017-10-20T07:20:55.842Z,216
2017-10-20T07:21:36.652Z,228
2017-10-20T07:22:17.361Z,228
2017-10-20T07:22:57.761Z,240
2017-10-20T07:23:38.821Z,240
2017-10-20T07:24:23.092Z,268
2017-10-20T07:38:11.249Z,428
2017-10-20T07:38:53.698Z,460
2017-10-20T07:39:34.602Z,444
2017-10-20T07:40:18.713Z,428
2017-10-20T07:41:01.482Z,440
2017-10-20T07:41:50.259Z,440
2017-10-20T07:42:33.856Z,444
2017-10-20T07:43:18.948Z,456
2017-10-20T07:44:03.781Z,464
2017-10-20T07:51:20.141Z,680
2017-10-20T07:54:55.717Z,636
2017-10-20T07:55:36.327Z,636
2017-10-20T07:56:16.984Z,608
2017-10-20T07:56:57.570Z,596
2017-10-20T07:57:38.123Z,608
2017-10-20T07:58:18.644Z,592
2017-10-20T07:58:59.171Z,616
2017-10-20T07:59:39.752Z,636
2017-10-20T08:00:20.388Z,616
2017-10-20T08:01:01.251Z,652
2017-10-20T08:01:41.631Z,660
2017-10-20T08:02:22.189Z,640
2017-10-20T08:03:02.804Z,672
2017-10-20T08:03:43.292Z,660
2017-10-20T08:04:23.782Z,696
2017-10-20T08:05:04.305Z,696
2017-10-20T08:05:44.908Z,692
2017-10-20T08:06:25.470Z,708
2017-10-20T08:07:06.036Z,740
2017-10-20T08:07:46.505Z,760
2017-10-20T08:08:27.037Z,760
2017-10-20T08:09:07.636Z,776
2017-10-20T08:09:49.555Z,796
2017-10-20T08:10:30.100Z,808
2017-10-20T08:11:10.633Z,848
2017-10-20T08:11:51.161Z,860
2017-10-20T08:12:31.739Z,884
2017-10-20T08:13:12.238Z,896
2017-10-20T08:13:52.801Z,908
2017-10-20T08:14:33.294Z,912
2017-10-20T08:15:13.861Z,916
2017-10-20T08:15:54.380Z,932
2017-10-20T08:16:34.926Z,908
2017-10-20T08:17:15.477Z,904
2017-10-20T08:17:56.037Z,916
2017-10-20T08:18:36.634Z,900
2017-10-20T08:19:17.449Z,904
2017-10-20T08:19:58.022Z,936
2017-10-20T08:20:38.650Z,916
2017-10-20T08:21:19.442Z,924
2017-10-20T08:22:00.424Z,920
2017-10-20T08:22:41.572Z,916
2017-10-20T08:23:23.018Z,912
2017-10-20T08:24:04.027Z,920
2017-10-20T08:24:45.018Z,888
2017-10-20T08:25:25.756Z,952
2017-10-20T08:26:06.445Z,888
2017-10-20T08:26:50.093Z,888
2017-10-20T08:27:31.009Z,896
2017-10-20T08:28:11.832Z,876
2017-10-20T08:28:52.953Z,856
2017-10-20T08:29:34.494Z,864
2017-10-20T08:30:19.940Z,840
2017-10-20T08:31:15.234Z,800
2017-10-20T08:31:58.927Z,800
2017-10-20T08:41:09.443Z,792
2017-10-20T08:41:50.015Z,764
2017-10-20T08:42:30.572Z,804
2017-10-20T08:43:11.112Z,828
2017-10-20T08:43:51.730Z,812
2017-10-20T08:44:32.252Z,860
2017-10-20T08:45:12.854Z,868
2017-10-20T08:45:53.462Z,896
2017-10-20T08:46:34.015Z,896
2017-10-20T08:47:14.545Z,896
2017-10-20T08:47:55.084Z,944
2017-10-20T08:48:35.656Z,936
2017-10-20T08:49:16.155Z,936
2017-10-20T08:49:56.861Z,980
2017-10-20T08:50:37.375Z,1036
2017-10-20T08:51:17.946Z,1088
2017-10-20T08:51:59.014Z,948
2017-10-20T08:52:39.740Z,964
2017-10-20T08:53:21.159Z,1080
2017-10-20T08:54:05.989Z,992
2017-10-20T08:54:50.421Z,960
2017-10-20T08:55:31.092Z,1004
2017-10-20T08:56:11.652Z,992
2017-10-20T08:56:52.249Z,1000
2017-10-20T08:57:33.034Z,972
2017-10-20T08:58:13.572Z,976
2017-10-20T08:58:54.197Z,976
2017-10-20T08:59:34.724Z,988
2017-10-20T09:00:15.272Z,1012
2017-10-20T09:00:55.774Z,1016
2017-10-20T09:01:36.334Z,1020
2017-10-20T09:02:16.895Z,1080
2017-10-20T09:02:57.415Z,988
2017-10-20T09:03:38.105Z,1044
2017-10-20T09:04:18.665Z,1076
2017-10-20T09:04:59.247Z,944
2017-10-20T09:05:39.794Z,964
2017-10-20T09:06:20.373Z,948
2017-10-20T09:07:00.848Z,908
2017-10-20T09:07:41.406Z,928
2017-10-20T09:08:21.963Z,920
2017-10-20T09:09:02.565Z,884
2017-10-20T09:09:43.110Z,876
2017-10-20T09:10:23.658Z,872
2017-10-20T09:11:04.347Z,884
2017-10-20T09:11:51.485Z,876
2017-10-20T09:12:44.080Z,900
2017-10-20T09:16:44.647Z,1012
2017-10-20T09:17:28.035Z,1136
2017-10-20T09:18:09.011Z,1124
2017-10-20T09:18:52.334Z,1208
2017-10-20T09:19:35.621Z,1144
2017-10-20T09:22:16.335Z,1116
2017-10-20T09:22:57.882Z,1148
2017-10-20T09:23:38.461Z,1120
2017-10-20T09:24:23.674Z,1100
2017-10-20T09:25:05.479Z,1096
2017-10-20T09:25:45.625Z,1032
2017-10-20T09:26:27.335Z,1028
2017-10-20T09:27:09.149Z,1048
2017-10-20T09:27:49.680Z,928
2017-10-20T09:28:30.403Z,924
2017-10-20T09:29:10.948Z,868
2017-10-20T09:29:51.454Z,928
2017-10-20T09:30:33.071Z,1104
2017-10-20T09:31:13.623Z,1388
2017-10-20T09:31:54.145Z,1368
2017-10-20T09:32:34.666Z,1488
2017-10-20T09:33:15.930Z,1544
2017-10-20T09:33:56.556Z,1440
2017-10-20T09:34:37.404Z,1376
2017-10-20T09:35:17.793Z,1404
2017-10-20T09:35:58.448Z,1224
2017-10-20T09:36:39.138Z,1128
2017-10-20T09:37:20.832Z,1132
2017-10-20T09:38:01.368Z,1064
2017-10-20T09:38:41.845Z,1032
2017-10-20T09:39:22.445Z,944
2017-10-20T09:40:02.926Z,916
2017-10-20T09:40:43.646Z,868
2017-10-20T09:41:24.294Z,840
2017-10-20T09:42:04.965Z,776
2017-10-20T09:42:45.880Z,744
2017-10-20T09:43:26.690Z,732
2017-10-20T09:44:08.260Z,716
2017-10-20T09:44:51.561Z,672
2017-10-20T09:45:32.256Z,668
2017-10-20T09:46:12.836Z,624
2017-10-20T09:46:53.766Z,600
2017-10-20T09:47:35.599Z,556
2017-10-20T09:48:16.392Z,500
2017-10-20T09:49:00.109Z,452
2017-10-20T09:49:40.679Z,420
2017-10-20T09:50:25.483Z,420
2017-10-20T09:51:05.998Z,432
2017-10-20T09:51:47.886Z,460
2017-10-20T09:52:28.587Z,504
2017-10-20T09:53:09.454Z,580
2017-10-20T09:56:31.832Z,896
2017-10-20T09:57:12.845Z,904
2017-10-20T09:57:53.399Z,952
2017-10-20T10:00:08.644Z,900
2017-10-20T10:00:52.320Z,896
2017-10-20T10:01:36.751Z,908
2017-10-20T10:02:20.130Z,904
2017-10-20T10:03:01.470Z,864
2017-10-20T10:03:50.167Z,860
2017-10-20T10:04:30.977Z,844
2017-10-20T10:05:11.598Z,808
2017-10-20T10:05:52.461Z,824
2017-10-20T10:06:34.974Z,784
2017-10-20T10:07:15.792Z,760
2017-10-20T10:07:56.434Z,736
2017-10-20T10:08:37.205Z,696
2017-10-20T10:09:17.912Z,684
2017-10-20T10:09:58.448Z,712
2017-10-20T10:10:38.923Z,712
2017-10-20T10:11:19.526Z,752
2017-10-20T10:12:00.107Z,780
2017-10-20T10:12:40.750Z,856
2017-10-20T10:13:21.347Z,908
2017-10-20T10:14:02.245Z,952
2017-10-20T10:14:43.152Z,972
2017-10-20T10:15:23.709Z,984
2017-10-20T10:16:04.297Z,968
2017-10-20T10:16:44.841Z,932
2017-10-20T10:17:25.446Z,972
2017-10-20T10:18:06.009Z,972
2017-10-20T10:18:46.529Z,1008
2017-10-20T10:19:27.055Z,1032
2017-10-20T10:20:07.772Z,1040
2017-10-20T10:20:48.470Z,1072
2017-10-20T10:21:28.953Z,1096
2017-10-20T10:22:09.940Z,1124
2017-10-20T10:22:50.607Z,1080
2017-10-20T10:23:31.146Z,1056
2017-10-20T10:24:11.768Z,1032
2017-10-20T10:24:52.386Z,1040
2017-10-20T10:25:32.976Z,1056
2017-10-20T10:26:13.595Z,1064
2017-10-20T10:26:54.193Z,1084
2017-10-20T10:27:34.773Z,1048
2017-10-20T10:28:15.345Z,1092
2017-10-20T10:28:55.868Z,1116
2017-10-20T10:29:36.460Z,1064
2017-10-20T10:30:17.033Z,1004
2017-10-20T10:30:57.584Z,996
2017-10-20T10:31:38.231Z,984
2017-10-20T10:32:18.845Z,1000
2017-10-20T10:32:59.392Z,964
2017-10-20T10:33:40.020Z,1008
2017-10-20T10:34:20.612Z,1044
2017-10-20T10:35:01.985Z,1076
2017-10-20T10:35:42.501Z,1048
2017-10-20T10:36:23.161Z,1076
2017-10-20T10:37:06.896Z,1160
2017-10-20T10:37:47.483Z,1132
2017-10-20T10:38:28.060Z,1116
2017-10-20T10:39:08.698Z,1104
2017-10-20T10:39:49.269Z,1124
2017-10-20T10:40:30.381Z,1056
2017-10-20T10:41:11.032Z,1016
2017-10-20T10:41:51.685Z,1020
2017-10-20T10:42:32.221Z,1052
2017-10-20T10:43:12.781Z,1080
2017-10-20T10:43:53.319Z,1084
2017-10-20T10:44:33.866Z,1104
2017-10-20T10:45:14.528Z,1076
2017-10-20T10:45:55.135Z,1068
2017-10-20T10:46:35.686Z,1072
2017-10-20T10:47:16.288Z,1084
2017-10-20T10:47:56.823Z,1092
2017-10-20T10:48:37.517Z,1064
2017-10-20T10:49:18.064Z,1056
2017-10-20T10:49:58.712Z,1024
2017-10-20T10:50:39.297Z,1020
2017-10-20T10:51:19.821Z,992
2017-10-20T10:52:00.360Z,1020
2017-10-20T10:52:40.928Z,1040
2017-10-20T10:53:21.512Z,1112
2017-10-20T10:54:02.058Z,1128
2017-10-20T10:54:42.679Z,1136
2017-10-20T10:55:23.291Z,1196
2017-10-20T10:56:03.818Z,1196
2017-10-20T10:56:44.399Z,1192
2017-10-20T10:57:24.975Z,1192
2017-10-20T10:58:05.563Z,1184
2017-10-20T10:58:46.078Z,1192
2017-10-20T10:59:26.656Z,1184
2017-10-20T11:00:07.194Z,1200
2017-10-20T11:00:47.744Z,1220
2017-10-20T11:01:28.373Z,1224
2017-10-20T11:02:08.934Z,1240
2017-10-20T11:02:49.552Z,1272
2017-10-20T11:03:30.126Z,1300
2017-10-20T11:04:10.641Z,1284
2017-10-20T11:04:51.232Z,1300
2017-10-20T11:05:33.516Z,1296
2017-10-20T11:06:14.036Z,1248
2017-10-20T11:06:54.607Z,1176
2017-10-20T11:07:35.156Z,1180
2017-10-20T11:08:15.707Z,1336
2017-10-20T11:08:56.319Z,1236
2017-10-20T11:09:36.855Z,1244
2017-10-20T11:10:17.379Z,1436
2017-10-20T11:10:57.977Z,1496
2017-10-20T11:11:38.516Z,1356
2017-10-20T11:12:19.083Z,1292
2017-10-20T11:12:59.655Z,1284
2017-10-20T11:13:40.153Z,1328
2017-10-20T11:14:20.714Z,1344
2017-10-20T11:15:01.255Z,1152
2017-10-20T11:15:41.835Z,1036
2017-10-20T11:16:22.407Z,992
2017-10-20T11:17:02.934Z,932
2017-10-20T11:17:43.464Z,904
2017-10-20T11:18:24.030Z,888
2017-10-20T11:19:04.660Z,832
2017-10-20T11:19:48.165Z,796
2017-10-20T11:20:28.667Z,732
2017-10-20T11:21:09.266Z,720
2017-10-20T11:21:49.841Z,688
2017-10-20T11:22:32.367Z,692
2017-10-20T11:23:12.892Z,700
2017-10-20T11:23:53.442Z,672
2017-10-20T11:24:33.988Z,688
2017-10-20T11:25:14.550Z,692
2017-10-20T11:25:57.041Z,664
2017-10-20T11:26:37.619Z,640
2017-10-20T11:27:18.264Z,612
2017-10-20T11:27:58.801Z,596
2017-10-20T11:28:39.424Z,600
2017-10-20T11:29:20.010Z,596
2017-10-20T11:30:00.610Z,620
2017-10-20T11:30:41.156Z,600
2017-10-20T11:31:21.763Z,628
2017-10-20T11:32:02.298Z,664
2017-10-20T11:32:42.901Z,696
2017-10-20T11:33:23.522Z,716
2017-10-20T11:34:05.915Z,728
2017-10-20T11:34:46.445Z,748
2017-10-20T11:35:27.081Z,760
2017-10-20T11:36:07.620Z,708
2017-10-20T11:36:48.217Z,652
2017-10-20T11:37:28.914Z,608
2017-10-20T11:38:09.593Z,576
2017-10-20T11:38:50.236Z,552
2017-10-20T11:39:30.824Z,584
2017-10-20T11:40:11.636Z,604
2017-10-20T11:40:52.122Z,620
2017-10-20T11:41:32.701Z,652
2017-10-20T11:42:13.270Z,700
2017-10-20T11:42:53.838Z,708
2017-10-20T11:43:34.453Z,704
2017-10-20T11:44:15.036Z,680
2017-10-20T11:44:55.629Z,608
2017-10-20T11:45:36.197Z,568
2017-10-20T11:46:16.752Z,532
2017-10-20T11:46:57.350Z,512
2017-10-20T11:47:37.976Z,488
2017-10-20T11:48:18.561Z,492
2017-10-20T11:48:59.222Z,492
2017-10-20T11:49:39.918Z,468
2017-10-20T11:50:20.377Z,436
2017-10-20T11:51:00.882Z,432
2017-10-20T11:51:41.455Z,436
2017-10-20T11:52:22.061Z,432
2017-10-20T11:53:02.627Z,436
2017-10-20T11:53:43.218Z,432
2017-10-20T11:54:23.789Z,420
2017-10-20T11:55:04.368Z,396
2017-10-20T11:55:44.993Z,396
2017-10-20T11:56:25.576Z,444
2017-10-20T11:57:06.159Z,520
2017-10-20T11:57:46.826Z,548
2017-10-20T11:58:27.330Z,544
2017-10-20T11:59:07.938Z,524
2017-10-20T11:59:48.480Z,520
2017-10-20T12:00:29.141Z,548
2017-10-20T12:01:09.727Z,588
2017-10-20T12:01:50.385Z,620
2017-10-20T12:02:32.734Z,656
2017-10-20T12:03:19.532Z,712
2017-10-20T12:04:20.099Z,804
2017-10-20T12:05:01.112Z,840
2017-10-20T12:05:44.002Z,904
2017-10-20T12:06:24.901Z,944
2017-10-20T12:07:07.593Z,984
2017-10-20T12:07:50.627Z,988
2017-10-20T12:16:49.412Z,848
2017-10-20T12:17:36.026Z,784
2017-10-20T12:18:15.490Z,756
2017-10-20T12:18:56.984Z,760
2017-10-20T12:19:37.065Z,740
2017-10-20T12:20:17.646Z,732
2017-10-20T12:20:59.705Z,740
2017-10-20T12:21:40.666Z,736
2017-10-20T12:22:22.299Z,764
2017-10-20T12:23:07.249Z,808
2017-10-20T12:23:50.420Z,892
2017-10-20T12:24:32.181Z,1092
2017-10-20T12:25:12.718Z,1140
2017-10-20T12:25:53.852Z,1144
2017-10-20T12:26:35.791Z,1176
2017-10-20T12:27:17.221Z,1136
2017-10-20T12:27:57.909Z,1072
2017-10-20T12:28:38.575Z,1064
2017-10-20T12:29:19.265Z,984
2017-10-20T12:29:59.774Z,904
2017-10-20T12:30:40.394Z,816
2017-10-20T12:31:20.967Z,696
2017-10-20T12:32:01.638Z,580
2017-10-20T12:32:44.892Z,516
2017-10-20T12:33:25.434Z,508
2017-10-20T12:34:05.993Z,508
2017-10-20T12:34:46.525Z,512
2017-10-20T12:35:27.312Z,520
2017-10-20T12:36:07.836Z,528
2017-10-20T12:36:48.666Z,584
2017-10-20T12:37:29.355Z,544
2017-10-20T12:38:10.106Z,588
2017-10-20T12:38:51.450Z,612
2017-10-20T12:39:31.481Z,568
2017-10-20T12:40:12.033Z,544
2017-10-20T12:40:52.629Z,512
2017-10-20T12:41:33.127Z,488
2017-10-20T12:42:13.692Z,528
2017-10-20T12:42:54.775Z,576
2017-10-20T12:43:35.233Z,636
2017-10-20T12:44:15.719Z,700
2017-10-20T12:44:56.327Z,768
2017-10-20T12:45:36.950Z,812
2017-10-20T12:46:18.074Z,832
2017-10-20T12:46:58.653Z,848